Almelund, Minnesota
Current Conditions -  °F | °C
As of 6:15 PM on Friday 28 Nov 2014 (Local Time) from KOEO Reporting Station
Light Snow Light Snow  
Wind Chill: 14°   Ceiling: 8000
Heat Index: 22°   Visibility: 10mi
Dew Point: 17°   Wind: 6mph
Humidity: 82%   Direction: 90°E
Pressure: 29.88"   Gusts: NA
Location:  45.49°N, 92.79°W
Report Text: KOEO 290015Z AUTO 09005KT 10SM -SN SCT065 OVC080 M06/M08 A2988 RMK AO2 T10571083
Loading
Personal Weather Stations






























Interactive Weather Map New forecast layout! Learn more

10-Day Weather Forecast

Advertisements
Track Severe Weather on mobile